Time;durP1;ratioP1;P1;durP2;ratioP2;P2;SDS_P1;SDS_P2;PMS_P1;PMS_P2;Temp;Humidity;BMP_temperature;BMP_pressure;BME280_temperature;BME280_humidity;BME280_pressure;Samples;Min_cycle;Max_cycle;Signal;HPM_P1;HPM_P2
2022/06/20 00:00:50;;;;;;;5.53;1.80;;;14.00;99.90;;;;;;5092352;28;20036;-70
2022/06/20 00:03:35;;;;;;;;;;;14.10;99.90;;;;;;5109965;28;20044;-63
2022/06/20 00:06:00;;;;;;;7.40;2.20;;;14.00;99.90;;;;;;5093493;28;20058;-63
2022/06/20 00:08:26;;;;;;;7.32;2.30;;;14.00;99.90;;;;;;5093136;28;20090;-64
2022/06/20 00:10:52;;;;;;;6.82;1.60;;;14.00;99.90;;;;;;5093434;28;20065;-64
2022/06/20 00:13:31;;;;;;;;;;;13.90;99.90;;;;;;5093601;28;20036;-64
2022/06/20 00:16:00;;;;;;;4.85;1.60;;;13.70;99.90;;;;;;5092831;28;19924;-64
2022/06/20 00:18:27;;;;;;;8.27;2.30;;;13.50;99.90;;;;;;5092126;28;20047;-64
2022/06/20 00:20:53;;;;;;;6.68;1.73;;;13.70;99.90;;;;;;5092963;28;20097;-65
2022/06/20 00:23:19;;;;;;;8.65;1.90;;;13.90;99.90;;;;;;5092890;28;20472;-64
2022/06/20 00:25:45;;;;;;;;;;;14.00;99.90;;;;;;5093457;28;20097;-64
2022/06/20 00:28:13;;;;;;;6.65;1.30;;;13.80;99.90;;;;;;5125706;27;19920;-64
2022/06/20 00:30:40;;;;;;;5.85;1.60;;;13.30;99.90;;;;;;5093036;28;20419;-64
2022/06/20 00:33:06;;;;;;;8.55;2.28;;;13.60;99.90;;;;;;5091858;28;20052;-65
2022/06/20 00:35:33;;;;;;;10.55;1.90;;;13.60;99.90;;;;;;5092232;28;20066;-65
2022/06/20 00:38:00;;;;;;;5.95;1.88;;;14.70;99.90;;;;;;5092734;28;20052;-65
2022/06/20 00:40:36;;;;;;;8.40;1.90;;;13.30;99.90;;;;;;5092694;28;20337;-64
2022/06/20 00:43:05;;;;;;;6.60;1.50;;;13.40;99.90;;;;;;5092742;28;20048;-65
2022/06/20 00:45:37;;;;;;;5.05;1.83;;;13.40;99.90;;;;;;5092624;28;20089;-65
2022/06/20 00:48:09;;;;;;;6.22;1.80;;;13.70;99.90;;;;;;5092685;28;20056;-64
2022/06/20 00:50:35;;;;;;;5.75;1.65;;;13.30;99.90;;;;;;5092648;28;20090;-65
2022/06/20 00:53:08;;;;;;;5.32;1.80;;;14.50;99.90;;;;;;5092447;28;20148;-65
2022/06/20 00:55:48;;;;;;;9.70;1.80;;;13.20;99.90;;;;;;5092099;28;20040;-64
2022/06/20 00:58:26;;;;;;;5.78;1.73;;;13.70;99.90;;;;;;5092408;28;20108;-64
2022/06/20 01:00:51;;;;;;;10.93;2.03;;;13.20;99.90;;;;;;5092421;28;20055;-64
2022/06/20 01:03:21;;;;;;;5.07;1.67;;;13.50;99.90;;;;;;5092378;28;20396;-64
2022/06/20 01:05:56;;;;;;;5.18;1.50;;;13.40;99.90;;;;;;5090601;28;20092;-64
2022/06/20 01:08:43;;;;;;;8.40;1.60;;;13.10;99.90;;;;;;5092484;28;20047;-64
2022/06/20 01:11:24;;;;;;;8.35;1.70;;;13.00;99.90;;;;;;5091759;28;20044;-64
2022/06/20 01:13:51;;;;;;;8.02;1.52;;;13.10;99.90;;;;;;5091811;28;20048;-64
2022/06/20 01:16:30;;;;;;;5.70;1.80;;;12.90;99.90;;;;;;5092163;28;20044;-64
2022/06/20 01:18:58;;;;;;;5.60;1.80;;;13.30;99.90;;;;;;5092026;28;20090;-64
2022/06/20 01:21:35;;;;;;;7.47;2.13;;;13.40;99.90;;;;;;5092053;28;20085;-64
2022/06/20 01:24:21;;;;;;;7.70;2.10;;;13.00;99.90;;;;;;5092064;28;20408;-64
2022/06/20 01:27:30;;;;;;;8.43;2.50;;;13.40;99.90;;;;;;5091757;28;20089;-64
2022/06/20 01:29:57;;;;;;;19.80;2.60;;;13.10;99.90;;;;;;5090560;28;20048;-64
2022/06/20 01:32:23;;;;;;;10.90;2.53;;;13.10;99.90;;;;;;5091370;28;20632;-65
2022/06/20 01:34:50;;;;;;;6.38;2.55;;;13.50;99.90;;;;;;5091843;28;20135;-65
2022/06/20 01:37:23;;;;;;;9.68;2.20;;;13.20;99.90;;;;;;5091982;28;20048;-64
2022/06/20 01:39:50;;;;;;;6.97;2.05;;;13.10;99.90;;;;;;5092010;28;20040;-64
2022/06/20 01:42:20;;;;;;;7.82;2.20;;;13.10;99.90;;;;;;5091917;28;20090;-64
2022/06/20 01:44:50;;;;;;;10.02;3.05;;;14.10;99.90;;;;;;5090424;28;20047;-64
2022/06/20 01:47:16;;;;;;;11.30;2.38;;;14.00;99.90;;;;;;5091883;28;20043;-64
2022/06/20 01:49:42;;;;;;;;;;;12.60;99.90;;;;;;5092238;28;20044;-64
2022/06/20 01:52:23;;;;;;;9.50;2.47;;;12.90;99.90;;;;;;5091546;28;19924;-65
2022/06/20 01:54:53;;;;;;;9.95;2.40;;;13.10;99.90;;;;;;5091973;28;20059;-65
2022/06/20 01:57:21;;;;;;;10.40;3.22;;;13.20;99.90;;;;;;5091886;28;20059;-64
2022/06/20 02:00:14;;;;;;;11.95;2.88;;;12.90;99.90;;;;;;5090752;28;20052;-64
2022/06/20 02:02:48;;;;;;;12.10;3.20;;;12.80;99.90;;;;;;5089560;28;20098;-64
2022/06/20 02:05:19;;;;;;;16.02;3.10;;;12.80;99.90;;;;;;5091324;28;20090;-64
2022/06/20 02:07:46;;;;;;;10.15;3.15;;;12.90;99.90;;;;;;5091576;28;20127;-64
2022/06/20 02:10:19;;;;;;;8.40;3.10;;;12.60;99.90;;;;;;5091482;28;20040;-64
2022/06/20 02:12:46;;;;;;;11.45;2.90;;;12.90;99.90;;;;;;5091507;28;20056;-64
2022/06/20 02:15:17;;;;;;;9.95;3.60;;;13.50;99.90;;;;;;5091168;28;20047;-64
2022/06/20 02:17:45;;;;;;;12.95;3.70;;;12.60;99.90;;;;;;5091517;28;20051;-64
2022/06/20 02:20:16;;;;;;;16.30;3.83;;;12.40;99.90;;;;;;5090974;28;20606;-65
2022/06/20 02:22:43;;;;;;;8.15;2.83;;;12.70;99.90;;;;;;5091615;28;20055;-64
2022/06/20 02:25:14;;;;;;;11.40;3.60;;;12.50;99.90;;;;;;5094782;28;20055;-63
2022/06/20 02:27:45;;;;;;;9.60;3.58;;;12.30;99.90;;;;;;5095123;28;20105;-64
2022/06/20 02:30:12;;;;;;;8.45;3.35;;;12.20;99.90;;;;;;5093623;28;20051;-65
2022/06/20 02:32:54;;;;;;;12.13;3.13;;;12.10;99.90;;;;;;5093808;28;20051;-64
2022/06/20 02:35:20;;;;;;;15.93;3.35;;;12.20;99.90;;;;;;5094914;28;20066;-64
2022/06/20 02:37:47;;;;;;;16.02;3.67;;;12.30;99.90;;;;;;5095061;28;20059;-64
2022/06/20 02:40:16;;;;;;;10.57;3.97;;;12.40;99.90;;;;;;5094275;28;20519;-64
2022/06/20 02:42:52;;;;;;;17.52;3.53;;;12.30;99.90;;;;;;5094239;28;20048;-64
2022/06/20 02:45:19;;;;;;;8.52;3.10;;;12.10;99.90;;;;;;5093899;28;20052;-64
2022/06/20 02:47:48;;;;;;;11.75;3.60;;;12.30;99.90;;;;;;5094387;28;20496;-64
2022/06/20 02:50:20;;;;;;;11.90;3.70;;;12.20;99.90;;;;;;5094153;28;20093;-64
2022/06/20 02:53:00;;;;;;;15.60;3.88;;;12.20;99.90;;;;;;5094531;28;20052;-64
2022/06/20 02:55:27;;;;;;;12.43;3.67;;;12.70;99.90;;;;;;5094603;28;20157;-64
2022/06/20 02:57:58;;;;;;;8.38;3.75;;;12.10;99.90;;;;;;5093684;28;20050;-64
2022/06/20 03:00:35;;;;;;;8.52;3.20;;;12.30;99.90;;;;;;5094291;28;20047;-65
2022/06/20 03:03:09;;;;;;;15.20;4.25;;;12.40;99.90;;;;;;5094533;28;20178;-64
2022/06/20 03:05:36;;;;;;;11.88;3.85;;;12.30;99.90;;;;;;5094231;28;20044;-64
2022/06/20 03:08:02;;;;;;;13.90;4.05;;;12.10;99.90;;;;;;5094513;28;20131;-64
2022/06/20 03:10:38;;;;;;;6.88;3.90;;;12.00;99.90;;;;;;5094315;28;20134;-64
2022/06/20 03:13:05;;;;;;;9.85;4.53;;;12.30;99.90;;;;;;5093048;28;20056;-64
2022/06/20 03:15:31;;;;;;;9.48;3.80;;;12.10;99.90;;;;;;5093047;28;20106;-64
2022/06/20 03:17:58;;;;;;;8.95;3.92;;;12.20;99.90;;;;;;5093785;28;20044;-64
2022/06/20 03:20:25;;;;;;;12.15;3.78;;;12.40;99.90;;;;;;5093957;28;20040;-64
2022/06/20 03:23:06;;;;;;;13.77;3.70;;;12.40;99.90;;;;;;5093789;28;20039;-64
2022/06/20 03:25:32;;;;;;;13.60;5.13;;;11.80;99.90;;;;;;5094141;28;20047;-64
2022/06/20 03:27:58;;;;;;;;;;;12.20;99.90;;;;;;5094418;28;20048;-63
2022/06/20 03:30:35;;;;;;;14.73;4.72;;;12.00;99.90;;;;;;5094171;28;20001;-64
2022/06/20 03:33:04;;;;;;;7.80;3.55;;;12.30;99.90;;;;;;5093793;28;20050;-64
2022/06/20 03:35:31;;;;;;;16.52;3.90;;;12.00;99.90;;;;;;5093040;28;20348;-63
2022/06/20 03:38:00;;;;;;;14.23;4.72;;;11.60;99.90;;;;;;5093613;28;20048;-63
2022/06/20 03:40:26;;;;;;;16.13;3.97;;;12.30;99.90;;;;;;5093849;28;20056;-64
2022/06/20 03:42:55;;;;;;;11.10;3.97;;;12.10;99.90;;;;;;5093819;28;20040;-64
2022/06/20 03:45:23;;;;;;;15.90;5.38;;;12.10;99.90;;;;;;5093560;28;20484;-64
2022/06/20 03:48:04;;;;;;;14.40;4.78;;;11.80;99.90;;;;;;5093644;28;20052;-65
2022/06/20 03:50:37;;;;;;;13.68;5.10;;;12.00;99.90;;;;;;5093977;28;20051;-64
2022/06/20 03:53:09;;;;;;;10.88;4.63;;;11.90;99.90;;;;;;5094171;28;20040;-64
2022/06/20 03:56:00;;;;;;;14.02;4.32;;;11.90;99.90;;;;;;5093860;28;20048;-64
2022/06/20 03:58:33;;;;;;;14.00;4.50;;;11.80;99.90;;;;;;5093722;28;20043;-64
2022/06/20 04:01:08;;;;;;;13.02;4.93;;;12.00;99.90;;;;;;5093524;28;20123;-64
2022/06/20 04:04:02;;;;;;;19.73;5.22;;;11.80;99.90;;;;;;5092753;28;20480;-64
2022/06/20 04:06:32;;;;;;;15.00;5.45;;;12.10;99.90;;;;;;5092255;28;20036;-64
2022/06/20 04:12:12;;;;;;;14.80;4.78;;;12.00;99.90;;;;;;5093401;28;20055;-64
2022/06/20 04:14:46;;;;;;;16.30;4.43;;;12.10;99.90;;;;;;5092861;28;20044;-64
2022/06/20 04:20:45;;;;;;;15.70;5.07;;;12.80;99.90;;;;;;5091117;28;20109;-64
2022/06/20 04:23:16;;;;;;;13.68;4.38;;;12.20;99.90;;;;;;5088845;28;20051;-64
2022/06/20 04:25:58;;;;;;;20.58;5.95;;;12.50;99.90;;;;;;5092737;28;20048;-64
2022/06/20 04:28:51;;;;;;;17.98;5.40;;;12.60;99.90;;;;;;5092890;28;20040;-64
2022/06/20 04:31:43;;;;;;;14.13;4.65;;;12.50;99.90;;;;;;5093023;28;20055;-64
2022/06/20 04:34:30;;;;;;;14.10;4.80;;;12.20;99.90;;;;;;5091306;28;20404;-64
2022/06/20 04:37:39;;;;;;;17.77;4.75;;;12.40;99.90;;;;;;5092804;28;20048;-64
2022/06/20 04:40:15;;;;;;;11.90;5.47;;;13.00;99.90;;;;;;5067518;28;20424;-65
2022/06/20 04:42:47;;;;;;;14.27;4.70;;;12.70;99.90;;;;;;5092762;28;20460;-63
2022/06/20 04:45:38;;;;;;;20.85;5.00;;;12.70;99.90;;;;;;5092571;28;20050;-64
2022/06/20 04:48:14;;;;;;;14.10;4.90;;;12.70;99.90;;;;;;5092423;28;20052;-64
2022/06/20 04:50:46;;;;;;;11.80;4.87;;;12.80;99.90;;;;;;5092468;28;20499;-64
2022/06/20 04:53:34;;;;;;;13.95;5.03;;;12.90;99.90;;;;;;5092254;28;20059;-64
2022/06/20 04:56:04;;;;;;;15.52;4.72;;;13.40;99.90;;;;;;5092372;28;20539;-64
2022/06/20 04:58:35;;;;;;;19.92;5.13;;;13.20;99.90;;;;;;5092252;28;20585;-64
2022/06/20 05:01:03;;;;;;;21.08;4.95;;;13.40;99.90;;;;;;5092407;28;20051;-64
2022/06/20 05:03:37;;;;;;;16.08;4.25;;;13.10;99.90;;;;;;5092370;28;20126;-64
2022/06/20 05:06:06;;;;;;;13.73;4.05;;;13.70;99.90;;;;;;5092009;28;20189;-64
2022/06/20 05:08:37;;;;;;;15.38;3.30;;;13.60;99.90;;;;;;5124620;27;20173;-64
2022/06/20 05:11:17;;;;;;;15.93;3.85;;;13.70;99.90;;;;;;5092283;28;20461;-64
2022/06/20 05:13:52;;;;;;;12.25;3.10;;;13.70;99.90;;;;;;5091839;28;20043;-64
2022/06/20 05:16:24;;;;;;;11.25;3.28;;;13.80;99.90;;;;;;5092098;28;20044;-64
2022/06/20 05:19:00;;;;;;;12.82;3.50;;;13.90;99.90;;;;;;5091816;28;20395;-64
2022/06/20 05:21:31;;;;;;;16.48;4.22;;;14.80;99.90;;;;;;5091952;28;20062;-64
2022/06/20 05:24:10;;;;;;;8.50;3.40;;;14.50;99.90;;;;;;5092165;28;20101;-64
2022/06/20 05:26:40;;;;;;;10.65;3.22;;;14.50;99.90;;;;;;5091995;28;20044;-64
2022/06/20 05:29:12;;;;;;;16.80;3.50;;;14.20;99.90;;;;;;5092400;28;20044;-65
2022/06/20 05:31:43;;;;;;;13.48;3.85;;;14.60;99.90;;;;;;5091916;28;20044;-64
2022/06/20 05:34:38;;;;;;;18.40;4.60;;;14.80;99.90;;;;;;5091694;28;20052;-63
2022/06/20 05:37:08;;;;;;;13.57;3.70;;;14.70;99.90;;;;;;5124959;28;20189;-63
2022/06/20 05:39:46;;;;;;;17.95;3.65;;;14.90;99.90;;;;;;5091146;28;20044;-64
2022/06/20 05:42:18;;;;;;;13.68;3.05;;;14.90;99.90;;;;;;5091916;28;20377;-63
2022/06/20 05:44:44;;;;;;;12.70;3.78;;;14.80;99.90;;;;;;5092018;28;20482;-64
2022/06/20 05:47:19;;;;;;;11.65;3.88;;;15.10;99.90;;;;;;5091919;28;20439;-64
2022/06/20 05:50:00;;;;;;;15.65;3.25;;;14.50;99.90;;;;;;5091706;28;20381;-64
2022/06/20 05:52:27;;;;;;;13.82;3.55;;;14.20;99.90;;;;;;5091506;28;20507;-64
2022/06/20 05:54:59;;;;;;;15.93;4.18;;;14.60;99.90;;;;;;5090686;28;20046;-64
2022/06/20 05:57:28;;;;;;;16.45;3.65;;;14.30;99.90;;;;;;5092334;28;20470;-65
2022/06/20 06:00:16;;;;;;;14.23;3.85;;;14.70;99.90;;;;;;5095545;28;20065;-64
2022/06/20 06:02:56;;;;;;;16.10;3.95;;;14.60;99.90;;;;;;5095772;28;20442;-65
2022/06/20 06:05:42;;;;;;;10.20;3.67;;;14.70;99.90;;;;;;5095719;28;20044;-65
2022/06/20 06:08:28;;;;;;;13.48;3.42;;;14.90;99.90;;;;;;5094282;28;20064;-64
2022/06/20 06:11:13;;;;;;;14.50;3.00;;;14.60;99.90;;;;;;5095630;28;20399;-65
2022/06/20 06:13:52;;;;;;;21.95;3.65;;;14.70;99.90;;;;;;5095626;28;20080;-64
2022/06/20 06:16:47;;;;;;;12.80;3.50;;;14.50;99.90;;;;;;5095386;28;20043;-66
2022/06/20 06:19:42;;;;;;;11.15;3.42;;;14.90;99.90;;;;;;5095392;28;20106;-64
2022/06/20 06:22:16;;;;;;;13.82;3.30;;;15.10;99.90;;;;;;5095006;28;20134;-66
2022/06/20 06:24:46;;;;;;;8.90;2.75;;;15.00;99.90;;;;;;5095076;28;20377;-64
2022/06/20 06:27:24;;;;;;;14.30;4.15;;;14.90;99.90;;;;;;5095013;28;20059;-65
2022/06/20 06:29:54;;;;;;;10.77;3.50;;;14.60;99.90;;;;;;5103262;28;20039;-65
2022/06/20 06:32:28;;;;;;;14.25;3.25;;;14.90;99.90;;;;;;5115153;28;20039;-64
2022/06/20 06:35:11;;;;;;;10.38;3.45;;;15.10;99.90;;;;;;5114510;28;20581;-65
2022/06/20 06:37:41;;;;;;;7.97;2.97;;;15.10;99.90;;;;;;5104058;27;20051;-65
2022/06/20 06:40:15;;;;;;;11.32;2.63;;;15.60;99.90;;;;;;5095077;28;20084;-65
2022/06/20 06:42:41;;;;;;;11.48;3.13;;;15.70;99.90;;;;;;5099101;27;20048;-65
2022/06/20 06:45:07;;;;;;;12.98;2.97;;;15.90;99.90;;;;;;5100035;28;20061;-64
2022/06/20 06:47:42;;;;;;;11.60;3.10;;;15.50;99.90;;;;;;5110889;28;20039;-63
2022/06/20 06:50:48;;;;;;;10.43;2.58;;;15.50;99.90;;;;;;5101294;27;20080;-64
2022/06/20 06:53:53;;;;;;;13.77;3.00;;;15.60;99.90;;;;;;5117960;27;20101;-65
2022/06/20 06:56:32;;;;;;;10.75;2.78;;;15.50;99.90;;;;;;5104187;27;20055;-63
2022/06/20 07:05:32;;;;;;;7.90;2.50;;;15.80;99.90;;;;;;5129668;27;20586;-67
2022/06/20 07:08:14;;;;;;;10.20;2.80;;;15.40;99.90;;;;;;5109440;28;20086;-66
2022/06/20 07:10:47;;;;;;;10.23;2.50;;;15.30;99.90;;;;;;5108837;28;20052;-65
2022/06/20 07:13:27;;;;;;;9.90;2.45;;;16.00;99.90;;;;;;5107876;28;20059;-67
2022/06/20 07:15:57;;;;;;;8.00;2.30;;;15.90;99.90;;;;;;5106685;28;20060;-67
2022/06/20 07:18:42;;;;;;;10.55;2.40;;;15.70;99.90;;;;;;5103405;28;20559;-69
2022/06/20 07:21:12;;;;;;;7.38;2.58;;;16.10;99.90;;;;;;5090422;28;20491;-67
2022/06/20 07:23:39;;;;;;;6.72;2.10;;;16.10;99.90;;;;;;5088968;28;20055;-68
2022/06/20 07:26:04;;;;;;;9.45;2.35;;;16.30;99.90;;;;;;5091119;28;20411;-67
2022/06/20 07:28:52;;;;;;;9.50;2.70;;;16.10;99.90;;;;;;5102988;28;20054;-66
2022/06/20 07:31:33;;;;;;;9.00;2.53;;;16.30;99.90;;;;;;5101609;28;20051;-67
2022/06/20 07:34:05;;;;;;;7.88;2.13;;;16.10;99.90;;;;;;5107290;28;20048;-67
2022/06/20 07:36:42;;;;;;;9.30;2.10;;;16.30;99.90;;;;;;5106681;28;20047;-68
2022/06/20 07:39:20;;;;;;;11.15;2.45;;;16.70;99.90;;;;;;5107140;28;20480;-67
2022/06/20 07:41:54;;;;;;;11.15;2.70;;;16.80;99.90;;;;;;5107784;28;20079;-64
2022/06/20 07:44:31;;;;;;;8.50;2.60;;;16.50;99.90;;;;;;5103068;28;20055;-65
2022/06/20 07:47:02;;;;;;;7.90;2.42;;;16.60;99.90;;;;;;5103808;28;20399;-69
2022/06/20 07:49:36;;;;;;;8.40;2.65;;;16.60;99.90;;;;;;5107852;28;20047;-66
2022/06/20 07:52:11;;;;;;;13.07;2.60;;;16.30;99.90;;;;;;5107884;28;20460;-67
2022/06/20 07:54:45;;;;;;;8.15;2.47;;;16.60;99.90;;;;;;5106336;28;20036;-67
2022/06/20 07:57:27;;;;;;;9.32;2.25;;;16.40;99.90;;;;;;5107675;28;20079;-67
2022/06/20 08:00:07;;;;;;;7.55;2.97;;;16.70;99.90;;;;;;5106750;28;20066;-67
2022/06/20 08:02:37;;;;;;;7.30;2.53;;;16.60;99.90;;;;;;5104246;28;20441;-67
2022/06/20 08:05:05;;;;;;;8.95;2.70;;;16.90;99.90;;;;;;5105629;28;20059;-62
2022/06/20 08:07:41;;;;;;;8.63;2.47;;;16.60;99.90;;;;;;5101050;28;20245;-66
2022/06/20 08:10:15;;;;;;;5.95;2.00;;;16.20;99.90;;;;;;5106917;28;20483;-67
2022/06/20 08:13:06;;;;;;;6.57;2.10;;;15.80;99.90;;;;;;5107099;28;20050;-67
2022/06/20 08:15:40;;;;;;;8.50;2.38;;;15.80;99.90;;;;;;5097141;28;20048;-66
2022/06/20 08:18:06;;;;;;;8.70;1.98;;;16.30;99.90;;;;;;5090938;28;20040;-67
2022/06/20 08:20:33;;;;;;;;;;;16.10;99.90;;;;;;5093845;28;20097;-67
2022/06/20 08:23:12;;;;;;;8.60;2.80;;;16.20;99.90;;;;;;5092655;28;20002;-67
2022/06/20 08:25:45;;;;;;;6.00;2.13;;;16.40;99.90;;;;;;5089487;28;20454;-66
2022/06/20 08:28:19;;;;;;;8.18;1.90;;;17.10;99.90;;;;;;5092241;28;20052;-67
2022/06/20 08:31:31;;;;;;;7.30;1.92;;;16.70;99.90;;;;;;5091510;28;20063;-69
2022/06/20 08:34:14;;;;;;;7.80;2.28;;;16.70;99.90;;;;;;5010269;28;20050;-67
2022/06/20 08:36:54;;;;;;;4.95;1.90;;;16.60;99.90;;;;;;5008871;28;20107;-67
2022/06/20 08:39:35;;;;;;;10.18;2.40;;;17.10;99.90;;;;;;5069441;28;20059;-64
2022/06/20 08:42:25;;;;;;;6.38;2.10;;;16.90;99.90;;;;;;5092265;28;20412;-65
2022/06/20 08:45:02;;;;;;;10.80;2.67;;;16.70;99.90;;;;;;5091218;28;20134;-67
2022/06/20 08:47:53;;;;;;;10.77;2.38;;;16.90;99.90;;;;;;5094204;28;20131;-67
2022/06/20 08:50:38;;;;;;;5.15;2.03;;;16.80;99.90;;;;;;5093968;28;20056;-66
2022/06/20 08:53:12;;;;;;;7.63;2.50;;;16.80;99.90;;;;;;5093621;28;20690;-65
2022/06/20 08:56:11;;;;;;;6.28;2.05;;;17.00;99.90;;;;;;5093280;28;20134;-67
2022/06/20 08:59:04;;;;;;;9.10;2.90;;;17.00;99.90;;;;;;5093489;28;20055;-66
2022/06/20 09:01:41;;;;;;;7.60;2.20;;;17.10;99.90;;;;;;5093326;28;20055;-67
2022/06/20 09:04:51;;;;;;;6.93;1.88;;;16.70;99.90;;;;;;5093198;28;20055;-67
2022/06/20 09:07:27;;;;;;;4.85;1.88;;;16.50;99.90;;;;;;5080754;28;20080;-66
2022/06/20 09:10:02;;;;;;;;;;;16.90;99.90;;;;;;5093562;28;20054;-67
2022/06/20 09:13:01;;;;;;;9.07;1.92;;;16.80;99.90;;;;;;5093867;28;20011;-65
2022/06/20 09:15:38;;;;;;;6.10;1.80;;;17.20;99.90;;;;;;5091772;28;20149;-65
2022/06/20 09:18:12;;;;;;;7.53;2.25;;;17.20;99.90;;;;;;5092664;28;20437;-68
2022/06/20 09:21:12;;;;;;;6.53;2.00;;;17.00;99.90;;;;;;5093159;28;20052;-67
2022/06/20 09:24:03;;;;;;;7.90;2.15;;;17.10;99.90;;;;;;5081864;28;20488;-67
2022/06/20 09:26:45;;;;;;;6.35;2.22;;;17.50;99.90;;;;;;5091845;28;20574;-66
2022/06/20 09:29:22;;;;;;;6.38;2.35;;;17.60;99.90;;;;;;5092733;28;20510;-66
2022/06/20 09:32:14;;;;;;;11.48;2.78;;;17.50;99.90;;;;;;5091754;28;20108;-67
2022/06/20 09:35:13;;;;;;;8.63;2.45;;;17.40;99.90;;;;;;5092458;28;20040;-66
2022/06/20 09:37:53;;;;;;;11.18;2.55;;;17.80;99.90;;;;;;5091450;28;20062;-66
2022/06/20 09:40:40;;;;;;;6.28;2.28;;;17.60;99.90;;;;;;5092727;28;20048;-64
2022/06/20 09:43:35;;;;;;;9.00;2.13;;;17.70;99.90;;;;;;5092641;28;20043;-66
2022/06/20 09:46:17;;;;;;;10.02;2.50;;;17.70;99.90;;;;;;5092664;28;20048;-65
2022/06/20 09:48:46;;;;;;;8.10;2.38;;;17.40;99.90;;;;;;5092510;28;20468;-63
2022/06/20 09:51:21;;;;;;;6.82;2.42;;;18.00;99.90;;;;;;5091040;28;20091;-66
2022/06/20 09:54:26;;;;;;;9.43;2.63;;;17.90;99.90;;;;;;5092257;28;20040;-66
2022/06/20 09:57:09;;;;;;;8.02;2.17;;;17.80;99.90;;;;;;5092240;28;20120;-64
2022/06/20 09:59:59;;;;;;;8.05;2.20;;;17.70;99.90;;;;;;5092509;28;20044;-65
2022/06/20 10:02:41;;;;;;;8.50;2.33;;;17.40;99.90;;;;;;5092375;28;20470;-67
2022/06/20 10:05:22;;;;;;;7.60;2.40;;;17.70;99.90;;;;;;5092140;28;20117;-65
2022/06/20 10:07:53;;;;;;;9.68;1.85;;;17.50;99.90;;;;;;5092127;28;20496;-66
2022/06/20 10:10:38;;;;;;;8.13;2.90;;;17.90;99.90;;;;;;5091930;28;20173;-66
2022/06/20 10:13:15;;;;;;;7.97;2.10;;;18.00;99.90;;;;;;5092173;28;20581;-67
2022/06/20 10:15:55;;;;;;;9.15;2.25;;;17.80;99.90;;;;;;5092399;28;20059;-67
2022/06/20 10:18:44;;;;;;;9.20;2.92;;;17.60;99.90;;;;;;5091404;28;20472;-67
2022/06/20 10:21:10;;;;;;;8.00;2.30;;;18.00;99.90;;;;;;5091717;28;20047;-66
2022/06/20 10:23:54;;;;;;;;;;;17.60;99.90;;;;;;5092106;28;20048;-67
2022/06/20 10:26:49;;;;;;;5.72;2.10;;;18.00;99.90;;;;;;5091656;28;19924;-66
2022/06/20 10:29:47;;;;;;;9.10;2.38;;;17.90;99.90;;;;;;5091545;28;20290;-66
2022/06/20 10:32:17;;;;;;;9.75;2.60;;;17.90;99.90;;;;;;5091494;28;20500;-65
2022/06/20 10:34:43;;;;;;;5.63;2.28;;;18.10;99.90;;;;;;5091614;28;20374;-66
2022/06/20 10:37:33;;;;;;;11.07;2.40;;;18.10;99.90;;;;;;5091436;28;20048;-67
2022/06/20 10:40:20;;;;;;;5.30;2.35;;;18.80;99.90;;;;;;5091120;28;20054;-66
2022/06/20 10:43:02;;;;;;;7.60;2.40;;;18.20;99.90;;;;;;5091351;28;20434;-66
2022/06/20 10:45:39;;;;;;;4.68;2.20;;;18.60;99.90;;;;;;5091591;28;20063;-66
2022/06/20 10:48:14;;;;;;;4.32;2.10;;;18.60;99.90;;;;;;5091250;28;20094;-66
2022/06/20 10:51:12;;;;;;;3.60;2.03;;;18.60;99.90;;;;;;5091403;28;20067;-66
2022/06/20 10:53:48;;;;;;;9.07;2.38;;;18.50;99.90;;;;;;5090711;28;20392;-66
2022/06/20 10:56:37;;;;;;;5.95;2.50;;;18.10;99.90;;;;;;5091437;28;20047;-66
2022/06/20 10:59:40;;;;;;;7.65;2.17;;;18.30;99.90;;;;;;5091005;28;20553;-63
2022/06/20 11:02:23;;;;;;;5.68;2.45;;;18.20;99.90;;;;;;5090823;28;20395;-67
2022/06/20 11:05:45;;;;;;;6.25;2.30;;;18.50;99.90;;;;;;5091067;28;20130;-67
2022/06/20 11:08:47;;;;;;;8.07;2.20;;;18.40;99.90;;;;;;5008570;28;20413;-66
2022/06/20 11:11:24;;;;;;;8.20;2.47;;;18.40;99.90;;;;;;5008687;28;20088;-66
2022/06/20 11:14:02;;;;;;;7.40;2.40;;;18.70;99.90;;;;;;5083886;28;20484;-67
2022/06/20 11:16:53;;;;;;;8.15;2.45;;;18.40;99.90;;;;;;5091149;28;20063;-66
2022/06/20 11:19:32;;;;;;;7.43;2.30;;;18.70;99.90;;;;;;5090711;28;20483;-65
2022/06/20 11:22:21;;;;;;;5.78;2.20;;;18.10;99.90;;;;;;5090830;28;20496;-66
2022/06/20 11:24:53;;;;;;;7.82;2.55;;;18.30;99.90;;;;;;5091027;28;20055;-68
2022/06/20 11:27:40;;;;;;;6.05;2.25;;;18.40;99.90;;;;;;5090996;28;20059;-67
2022/06/20 11:30:36;;;;;;;8.23;2.28;;;18.00;99.90;;;;;;5091221;28;20062;-66
2022/06/20 11:34:01;;;;;;;3.92;2.15;;;18.20;99.90;;;;;;5091474;28;20081;-65
2022/06/20 11:36:58;;;;;;;11.35;2.45;;;18.20;99.90;;;;;;5090905;28;20079;-66
2022/06/20 11:40:04;;;;;;;7.90;2.43;;;18.00;99.90;;;;;;5089710;28;20048;-65
2022/06/20 11:43:07;;;;;;;7.70;2.50;;;17.90;99.90;;;;;;5084169;28;20052;-67
2022/06/20 11:46:07;;;;;;;8.23;2.30;;;18.00;99.90;;;;;;5069140;28;20132;-64
2022/06/20 11:49:07;;;;;;;8.65;2.13;;;18.20;99.90;;;;;;5025325;28;20052;-68
2022/06/20 11:51:51;;;;;;;10.00;2.35;;;18.60;99.90;;;;;;5039997;28;20261;-66
2022/06/20 11:54:32;;;;;;;8.13;2.75;;;18.60;99.90;;;;;;5074926;28;20054;-65
2022/06/20 11:57:22;;;;;;;8.90;2.50;;;19.10;99.90;;;;;;5074471;28;20048;-66
2022/06/20 12:00:00;;;;;;;7.72;2.50;;;18.80;99.90;;;;;;5074110;28;20492;-69
2022/06/20 12:02:41;;;;;;;5.90;2.10;;;19.10;99.90;;;;;;5072932;28;20052;-68
2022/06/20 12:05:29;;;;;;;5.25;2.17;;;18.60;99.90;;;;;;5074143;28;20056;-65
2022/06/20 12:08:16;;;;;;;6.50;2.35;;;18.80;99.90;;;;;;5074708;28;20051;-66
2022/06/20 12:10:56;;;;;;;9.88;2.03;;;18.70;99.90;;;;;;5074041;28;20057;-67
2022/06/20 12:13:53;;;;;;;5.15;2.13;;;18.60;99.90;;;;;;5074098;28;20049;-66
2022/06/20 12:16:38;;;;;;;8.30;3.55;;;18.70;99.90;;;;;;5074143;28;20056;-65
2022/06/20 12:25:04;;;;;;;8.98;2.30;;;18.60;99.90;;;;;;5074034;28;20123;-67
2022/06/20 12:27:30;;;;;;;10.90;2.63;;;19.10;99.90;;;;;;5073829;28;20044;-69
2022/06/20 12:29:56;;;;;;;5.05;2.08;;;18.70;99.90;;;;;;5073558;28;20626;-69
2022/06/20 12:32:28;;;;;;;6.85;1.98;;;18.70;99.90;;;;;;5073656;28;20053;-66
2022/06/20 12:35:05;;;;;;;11.45;2.50;;;19.20;99.90;;;;;;5073850;28;20083;-65
2022/06/20 12:37:44;;;;;;;5.30;1.95;;;18.40;99.90;;;;;;5073606;28;20409;-65
2022/06/20 12:40:31;;;;;;;9.43;2.55;;;18.30;99.90;;;;;;5073458;28;20683;-67
2022/06/20 12:43:02;;;;;;;;;;;18.00;99.90;;;;;;5073892;28;20087;-68
2022/06/20 12:45:41;;;;;;;8.63;2.22;;;18.40;99.90;;;;;;5072958;28;20272;-67
2022/06/20 12:48:21;;;;;;;9.98;2.38;;;18.50;99.90;;;;;;5073456;28;20048;-68
2022/06/20 12:51:32;;;;;;;6.03;2.30;;;18.80;99.90;;;;;;5072436;28;20056;-67
2022/06/20 12:54:16;;;;;;;5.40;2.05;;;18.60;99.90;;;;;;5041642;28;20111;-68
2022/06/20 12:56:48;;;;;;;7.07;2.22;;;19.00;99.90;;;;;;5073379;28;20091;-67
2022/06/20 12:59:32;;;;;;;7.85;2.30;;;18.60;99.90;;;;;;5072877;28;20557;-67
2022/06/20 13:02:05;;;;;;;6.85;2.17;;;18.30;99.90;;;;;;5073143;28;20094;-67
2022/06/20 13:05:09;;;;;;;4.35;1.80;;;18.10;99.90;;;;;;5071347;28;20056;-70
2022/06/20 13:07:51;;;;;;;4.20;1.85;;;18.40;99.90;;;;;;5041715;28;20412;-69
2022/06/20 13:10:29;;;;;;;6.40;2.05;;;18.80;99.90;;;;;;5055598;28;20052;-72
2022/06/20 13:13:27;;;;;;;7.03;2.03;;;18.60;99.90;;;;;;5072890;28;20056;-67
2022/06/20 13:16:31;;;;;;;5.45;1.90;;;18.50;99.90;;;;;;5073274;28;20087;-67
2022/06/20 13:19:02;;;;;;;4.40;1.88;;;18.30;99.90;;;;;;5072337;28;20409;-66
2022/06/20 13:21:37;;;;;;;7.03;2.33;;;18.80;99.90;;;;;;5072470;28;20041;-67
2022/06/20 13:24:09;;;;;;;4.32;1.90;;;19.10;99.90;;;;;;5072872;28;20086;-66
2022/06/20 13:26:45;;;;;;;4.57;1.92;;;18.90;99.90;;;;;;5072638;28;20056;-66
2022/06/20 13:29:29;;;;;;;;;;;19.10;99.90;;;;;;5072970;28;20044;-67
2022/06/20 13:32:19;;;;;;;6.07;2.28;;;19.10;99.90;;;;;;5072797;28;19927;-67
2022/06/20 13:35:12;;;;;;;5.13;2.05;;;19.40;99.90;;;;;;5072631;28;20123;-71
2022/06/20 13:37:45;;;;;;;6.22;1.92;;;19.00;99.90;;;;;;5072423;28;20052;-66
2022/06/20 13:40:15;;;;;;;4.60;1.92;;;19.30;99.90;;;;;;5073019;28;20049;-65
2022/06/20 13:42:57;;;;;;;6.10;2.38;;;19.20;99.90;;;;;;5072243;28;20048;-70
2022/06/20 13:45:29;;;;;;;5.93;2.00;;;19.20;99.90;;;;;;5072744;28;20080;-67
2022/06/20 13:48:11;;;;;;;4.93;2.25;;;19.30;99.90;;;;;;5072195;28;20546;-65
2022/06/20 13:51:00;;;;;;;8.43;2.15;;;19.00;99.90;;;;;;5072109;28;20048;-70
2022/06/20 13:53:36;;;;;;;5.85;2.38;;;19.30;99.90;;;;;;5070890;28;20568;-67
2022/06/20 13:56:16;;;;;;;5.13;2.13;;;19.40;99.90;;;;;;5072520;28;20059;-67
2022/06/20 13:58:53;;;;;;;4.53;1.90;;;19.60;99.90;;;;;;5070756;28;20040;-67
2022/06/20 14:01:21;;;;;;;6.30;1.95;;;19.60;99.90;;;;;;5072423;28;20689;-67